CheckWX is a tool to help pilots better visualize weather data.  It is not intended as a substitute for an official pre-flight weather briefing.

07:34:29 UTC

KSFO METAR
San Francisco International Airport
San Francisco, California, USA
Current

38 mins ago

KSFO 120656Z 31013KT 10SM CLR 14/10 A2998 RMK AO2 SLP150 T01440100
Observed
Jul-12 @ 06:56 UTC
Wind
  • 310° at 13 KTS
Visibility
10 SM
Flight Rules
VFR
Cloud Levels
  • Clear skies
Temperature
14°C / 57°F
Dewpoint
10°C / 50°F
Humidity
77%
Altimeter
29.98" Hg
Pressure
1015.22 hPa
Previous

2 hours ago

KSFO 120556Z 31012KT 10SM CLR 14/10 A2998 RMK AO2 SLP152 T01440100 10217 20144 51006
Observed
Jul-12 @ 05:56 UTC
Wind
  • 310° at 12 KTS
Visibility
10 SM
Flight Rules
VFR
Cloud Levels
  • Clear skies
Temperature
14°C / 57°F
Dewpoint
10°C / 50°F
Humidity
77%
Altimeter
29.98" Hg
Pressure
1015.22 hPa
Previous

3 hours ago

KSFO 120456Z 30016KT 10SM CLR 14/10 A2998 RMK AO2 SLP152 T01440100
Observed
Jul-12 @ 04:56 UTC
Wind
  • 300° at 16 KTS
Visibility
10 SM
Flight Rules
VFR
Cloud Levels
  • Clear skies
Temperature
14°C / 57°F
Dewpoint
10°C / 50°F
Humidity
77%
Altimeter
29.98" Hg
Pressure
1015.22 hPa